Time;durP1;ratioP1;P1;durP2;ratioP2;P2;SDS_P1;SDS_P2;PMS_P1;PMS_P2;Temp;Humidity;BMP_temperature;BMP_pressure;BME280_temperature;BME280_humidity;BME280_pressure;Samples;Min_cycle;Max_cycle;Signal;HPM_P1;HPM_P2
2022/09/11 00:02:07;;;;;;;;;;;14.50;99.90;;;;;;5063110;28;19920;-71
2022/09/11 00:04:34;;;;;;;;;;;14.50;99.90;;;;;;5065038;28;19927;-71
2022/09/11 00:07:00;;;;;;;;;;;14.50;99.90;;;;;;5065254;28;20204;-71
2022/09/11 00:09:28;;;;;;;;;;;14.40;99.90;;;;;;5065227;28;19984;-71
2022/09/11 00:11:55;;;;;;;;;;;14.40;99.90;;;;;;5065524;28;19921;-71
2022/09/11 00:14:22;;;;;;;;;;;14.40;99.90;;;;;;5064753;28;19960;-71
2022/09/11 00:16:48;;;;;;;;;;;14.40;99.90;;;;;;5065298;28;20005;-70
2022/09/11 00:19:16;;;;;;;;;;;14.40;99.90;;;;;;5065161;28;20157;-71
2022/09/11 00:21:42;;;;;;;;;;;14.40;99.90;;;;;;5064994;28;19921;-71
2022/09/11 00:24:09;;;;;;;;;;;14.40;99.90;;;;;;5065017;28;19935;-70
2022/09/11 00:26:39;;;;;;;;;;;14.40;99.90;;;;;;5064944;28;20208;-71
2022/09/11 00:29:06;;;;;;;;;;;14.40;99.90;;;;;;5065426;28;19925;-71
2022/09/11 00:31:33;;;;;;;;;;;14.30;99.90;;;;;;5065055;28;19988;-71
2022/09/11 00:34:00;;;;;;;;;;;14.40;99.90;;;;;;5064335;28;20213;-71
2022/09/11 00:36:28;;;;;;;;;;;14.40;99.90;;;;;;5064542;28;19927;-71
2022/09/11 00:38:54;;;;;;;;;;;14.40;99.90;;;;;;5063639;28;19996;-71
2022/09/11 00:41:23;;;;;;;;;;;14.40;99.90;;;;;;5064137;28;20101;-71
2022/09/11 00:43:55;;;;;;;;;;;14.40;99.90;;;;;;5064213;28;20197;-71
2022/09/11 00:46:24;;;;;;;;;;;14.30;99.90;;;;;;5064688;28;19983;-71
2022/09/11 00:48:52;;;;;;;;;;;14.30;99.90;;;;;;5064814;28;19925;-71
2022/09/11 00:51:21;;;;;;;;;;;14.30;99.90;;;;;;5064699;28;20173;-71
2022/09/11 00:53:49;;;;;;;;;;;14.30;99.90;;;;;;5064206;28;19920;-71
2022/09/11 00:56:16;;;;;;;;;;;14.30;99.90;;;;;;5064378;28;19927;-70
2022/09/11 00:58:43;;;;;;;;;;;14.30;99.90;;;;;;5064470;28;19920;-71
2022/09/11 01:01:13;;;;;;;;;;;14.30;99.90;;;;;;5062349;28;20270;-71
2022/09/11 01:03:40;;;;;;;;;;;14.30;99.90;;;;;;5058552;28;19928;-71
2022/09/11 01:06:08;;;;;;;;;;;14.30;99.90;;;;;;5064208;28;19920;-71
2022/09/11 01:08:35;;;;;;;;;;;14.30;99.90;;;;;;5064282;28;19983;-70
2022/09/11 01:11:11;;;;;;;;;;;14.30;99.90;;;;;;5064322;28;19952;-71
2022/09/11 01:13:43;;;;;;;;;;;14.30;99.90;;;;;;5063729;28;19921;-70
2022/09/11 01:16:16;;;;;;;;;;;14.30;99.90;;;;;;5063970;28;19941;-70
2022/09/11 01:18:46;;;;;;;;;;;14.30;99.90;;;;;;5064033;28;19982;-71
2022/09/11 01:21:21;;;;;;;;;;;14.30;99.90;;;;;;5064468;28;19987;-71
2022/09/11 01:23:55;;;;;;;;;;;14.30;99.90;;;;;;5063787;28;19928;-71
2022/09/11 01:26:33;;;;;;;;;;;14.30;99.90;;;;;;5063868;28;19921;-71
2022/09/11 01:29:05;;;;;;;;;;;14.30;99.90;;;;;;5064077;28;19928;-71
2022/09/11 01:31:35;;;;;;;;;;;14.30;99.90;;;;;;5063763;28;19927;-70
2022/09/11 01:34:04;;;;;;;;;;;14.30;99.90;;;;;;5063261;28;19921;-71
2022/09/11 01:36:33;;;;;;;;;;;14.30;99.90;;;;;;5063750;28;19992;-71
2022/09/11 01:39:01;;;;;;;;;;;14.30;99.90;;;;;;5063606;28;19921;-71
2022/09/11 01:41:29;;;;;;;;;;;14.30;99.90;;;;;;5063926;28;19927;-71
2022/09/11 01:43:58;;;;;;;;;;;14.30;99.90;;;;;;5063553;28;19927;-70
2022/09/11 01:46:28;;;;;;;;;;;14.30;99.90;;;;;;5063572;28;19988;-71
2022/09/11 01:48:57;;;;;;;;;;;14.30;99.90;;;;;;5063568;28;20267;-71
2022/09/11 01:51:26;;;;;;;;;;;14.30;99.90;;;;;;5062918;28;19928;-71
2022/09/11 01:53:53;;;;;;;;;;;14.30;99.90;;;;;;5063108;28;19984;-71
2022/09/11 01:56:22;;;;;;;;;;;14.30;99.90;;;;;;5063736;28;19920;-71
2022/09/11 01:58:49;;;;;;;;;;;14.30;99.90;;;;;;5063405;28;19959;-71
2022/09/11 02:01:18;;;;;;;;;;;14.30;99.90;;;;;;5060624;28;19927;-71
2022/09/11 02:03:50;;;;;;;;;;;14.30;99.90;;;;;;5062864;28;19952;-71
2022/09/11 02:06:18;;;;;;;;;;;14.30;99.90;;;;;;5063454;28;19921;-71
2022/09/11 02:08:47;;;;;;;;;;;14.30;99.90;;;;;;5063429;28;19927;-71
2022/09/11 02:11:15;;;;;;;;;;;14.30;99.90;;;;;;5063236;28;19921;-71
2022/09/11 02:13:45;;;;;;;;;;;14.20;99.90;;;;;;5062633;28;19921;-70
2022/09/11 02:16:15;;;;;;;;;;;14.30;99.90;;;;;;5063099;28;19984;-71
2022/09/11 02:18:44;;;;;;;;;;;14.30;99.90;;;;;;5062808;28;19921;-71
2022/09/11 02:21:12;;;;;;;;;;;14.30;99.90;;;;;;5063401;28;19988;-71
2022/09/11 02:23:39;;;;;;;;;;;14.30;99.90;;;;;;5062658;28;19921;-71
2022/09/11 02:26:06;;;;;;;;;;;14.30;99.90;;;;;;5063235;28;20151;-71
2022/09/11 02:28:33;;;;;;;;;;;14.30;99.90;;;;;;5063090;28;19927;-71
2022/09/11 02:31:02;;;;;;;;;;;14.30;99.90;;;;;;5062994;28;19927;-71
2022/09/11 02:33:30;;;;;;;;;;;14.30;99.90;;;;;;5062781;28;19921;-71
2022/09/11 02:36:00;;;;;;;;;;;14.30;99.90;;;;;;5063082;28;19920;-72
2022/09/11 02:38:31;;;;;;;;;;;14.30;99.90;;;;;;5063337;28;19921;-71
2022/09/11 02:41:00;;;;;;;;;;;14.30;99.90;;;;;;5063066;28;20204;-71
2022/09/11 02:43:33;;;;;;;;;;;14.30;99.90;;;;;;5062292;28;19956;-71
2022/09/11 02:46:07;;;;;;;;;;;14.30;99.90;;;;;;5063120;28;20115;-72
2022/09/11 02:48:43;;;;;;;;;;;14.30;99.90;;;;;;5063031;28;19999;-72
2022/09/11 02:51:16;;;;;;;;;;;14.30;99.90;;;;;;5063042;28;19943;-71
2022/09/11 02:53:47;;;;;;;;;;;14.30;99.90;;;;;;5062360;28;19921;-71
2022/09/11 02:56:16;;;;;;;;;;;14.20;99.90;;;;;;5063072;28;19943;-71
2022/09/11 02:58:45;;;;;;;;;;;14.20;99.90;;;;;;5062817;28;19921;-72
2022/09/11 03:01:12;;;;;;;;;;;14.30;99.90;;;;;;5062756;28;19921;-71
2022/09/11 03:03:39;;;;;;;;;;;14.30;99.90;;;;;;5064185;28;19993;-71
2022/09/11 03:06:06;;;;;;;;;;;14.30;99.90;;;;;;5066788;28;19966;-71
2022/09/11 03:08:33;;;;;;;;;;;14.30;99.90;;;;;;5066493;28;19927;-71
2022/09/11 03:11:01;;;;;;;;;;;14.30;99.90;;;;;;5067037;28;19967;-71
2022/09/11 03:13:27;;;;;;;;;;;14.30;99.90;;;;;;5066372;28;19947;-71
2022/09/11 03:15:54;;;;;;;;;;;14.30;99.90;;;;;;5066412;28;19988;-71
2022/09/11 03:18:22;;;;;;;;;;;14.40;99.90;;;;;;5066169;28;19984;-72
2022/09/11 03:20:48;;;;;;;;;;;14.40;99.90;;;;;;5066360;28;19927;-71
2022/09/11 03:23:15;;;;;;;;;;;14.40;99.90;;;;;;5065771;28;20145;-72
2022/09/11 03:25:42;;;;;;;;;;;14.40;99.90;;;;;;5066401;28;19988;-71
2022/09/11 03:28:10;;;;;;;;;;;14.40;99.90;;;;;;5066166;28;19921;-73
2022/09/11 03:30:36;;;;;;;;;;;14.40;99.90;;;;;;5066303;28;19921;-71
2022/09/11 03:33:03;;;;;;;;;;;14.40;99.90;;;;;;5065701;28;19988;-72
2022/09/11 03:35:30;;;;;;;;;;;14.40;99.90;;;;;;5066056;28;19921;-71
2022/09/11 03:37:57;;;;;;;;;;;14.40;99.90;;;;;;5066346;28;19921;-71
2022/09/11 03:40:23;;;;;;;;;;;14.40;99.90;;;;;;5066243;28;20088;-71
2022/09/11 03:42:50;;;;;;;;;;;14.40;99.90;;;;;;5065292;28;20109;-71
2022/09/11 03:45:18;;;;;;;;;;;14.40;99.90;;;;;;5066144;28;19952;-71
2022/09/11 03:47:45;;;;;;;;;;;14.40;99.90;;;;;;5065831;28;19927;-70
2022/09/11 03:50:12;;;;;;;;;;;14.40;99.90;;;;;;5065621;28;19921;-71
2022/09/11 03:52:38;;;;;;;;;;;14.30;99.90;;;;;;5065533;28;19927;-70
2022/09/11 03:55:05;;;;;;;;;;;14.30;99.90;;;;;;5065731;28;19920;-71
2022/09/11 03:57:32;;;;;;;;;;;14.30;99.90;;;;;;5065718;28;19921;-71
2022/09/11 04:00:00;;;;;;;;;;;14.30;99.90;;;;;;5065562;28;20208;-71
2022/09/11 04:02:28;;;;;;;;;;;14.30;99.90;;;;;;5060686;28;20116;-71
2022/09/11 04:04:55;;;;;;;;;;;14.30;99.90;;;;;;5065228;28;19929;-71
2022/09/11 04:07:21;;;;;;;;;;;14.40;99.90;;;;;;5065729;28;19927;-71
2022/09/11 04:09:48;;;;;;;;;;;14.40;99.90;;;;;;5065409;28;20279;-70
2022/09/11 04:12:15;;;;;;;;;;;14.40;99.90;;;;;;5062964;28;19984;-70
2022/09/11 04:14:41;;;;;;;;;;;14.40;99.90;;;;;;5064034;28;20239;-71
2022/09/11 04:17:10;;;;;;;;;;;14.40;99.90;;;;;;5064749;28;20280;-71
2022/09/11 04:19:38;;;;;;;;;;;14.40;99.90;;;;;;5093845;23;19980;-89
2022/09/11 04:22:05;;;;;;;;;;;14.40;99.90;;;;;;5070931;28;19919;-90
2022/09/11 04:24:31;;;;;;;;;;;14.40;99.90;;;;;;5061503;28;19944;-89
2022/09/11 04:26:59;;;;;;;;;;;14.50;99.90;;;;;;5059729;28;19916;-90
2022/09/11 04:29:26;;;;;;;;;;;14.50;99.90;;;;;;5059638;28;19968;-89
2022/09/11 04:31:53;;;;;;;;;;;14.40;99.90;;;;;;5059310;28;19913;-91
2022/09/11 04:34:19;;;;;;;;;;;14.40;99.90;;;;;;5058813;28;19913;-90
2022/09/11 04:36:47;;;;;;;;;;;14.40;99.90;;;;;;5059573;28;19959;-89
2022/09/11 04:39:14;;;;;;;;;;;14.50;99.90;;;;;;5059635;28;19944;-88
2022/09/11 04:41:43;;;;;;;;;;;14.40;99.90;;;;;;5059631;28;19913;-89
2022/09/11 04:44:09;;;;;;;;;;;14.40;99.90;;;;;;5059073;28;19913;-90
2022/09/11 04:46:36;;;;;;;;;;;14.40;99.90;;;;;;5059302;28;19956;-89
2022/09/11 04:49:03;;;;;;;;;;;14.40;99.90;;;;;;5059509;28;19909;-90
2022/09/11 04:51:30;;;;;;;;;;;14.40;99.90;;;;;;5053063;28;19941;-89
2022/09/11 04:53:59;;;;;;;;;;;14.40;99.90;;;;;;5059756;28;19933;-90
2022/09/11 04:56:28;;;;;;;;;;;14.40;99.90;;;;;;5071789;28;19924;-88
2022/09/11 04:58:55;;;;;;;;;;;14.30;99.90;;;;;;5070818;28;19939;-90
2022/09/11 05:01:23;;;;;;;;;;;14.40;99.90;;;;;;5076594;28;19976;-90
2022/09/11 05:03:49;;;;;;;;;;;14.40;99.90;;;;;;5073629;28;19939;-90
2022/09/11 05:06:16;;;;;;;;;;;14.40;99.90;;;;;;5073315;28;19920;-89
2022/09/11 05:08:43;;;;;;;;;;;14.40;99.90;;;;;;5079204;28;19909;-89
2022/09/11 05:11:13;;;;;;;;;;;14.50;99.90;;;;;;5079127;28;19913;-90
2022/09/11 05:13:40;;;;;;;;;;;14.40;99.90;;;;;;5078249;28;19941;-89
2022/09/11 05:16:08;;;;;;;;;;;14.30;99.90;;;;;;5078919;28;19921;-89
2022/09/11 05:18:39;;;;;;;;;;;14.40;99.90;;;;;;5076597;22;19921;-71
2022/09/11 05:21:06;;;;;;;;;;;14.40;99.90;;;;;;5047545;28;20140;-71
2022/09/11 05:23:33;;;;;;;;;;;14.40;99.90;;;;;;5051711;28;19927;-71
2022/09/11 05:26:01;;;;;;;;;;;14.40;99.90;;;;;;5064669;28;19996;-71
2022/09/11 05:28:29;;;;;;;;;;;14.40;99.90;;;;;;5052936;28;19921;-71
2022/09/11 05:30:57;;;;;;;;;;;14.40;99.90;;;;;;5041425;28;20295;-71
2022/09/11 05:33:24;;;;;;;;;;;14.40;99.90;;;;;;5044151;28;19927;-72
2022/09/11 05:35:51;;;;;;;;;;;14.30;99.90;;;;;;5044562;28;19921;-71
2022/09/11 05:38:18;;;;;;;;;;;14.30;99.90;;;;;;5044272;28;20208;-71
2022/09/11 05:40:49;;;;;;;;;;;14.30;99.90;;;;;;5042081;28;19921;-71
2022/09/11 05:43:16;;;;;;;;;;;14.30;99.90;;;;;;5059443;28;20112;-71
2022/09/11 05:45:44;;;;;;;;;;;14.40;99.90;;;;;;5064039;28;19921;-71
2022/09/11 05:48:12;;;;;;;;;;;14.40;99.90;;;;;;5064709;28;19920;-71
2022/09/11 05:50:38;;;;;;;;;;;14.40;99.90;;;;;;5064469;28;19966;-72
2022/09/11 05:53:05;;;;;;;;;;;14.30;99.90;;;;;;5063703;28;20119;-71
2022/09/11 05:55:34;;;;;;;;;;;14.30;99.90;;;;;;5063946;28;19927;-71
2022/09/11 05:58:00;;;;;;;;;;;14.30;99.90;;;;;;5064326;28;19980;-71
2022/09/11 06:00:27;;;;;;;;;;;14.30;99.90;;;;;;5056177;28;19956;-71
2022/09/11 06:02:55;;;;;;;;;;;14.30;99.90;;;;;;5045590;28;19928;-71
2022/09/11 06:05:21;;;;;;;;;;;14.30;99.90;;;;;;5053548;28;19992;-70
2022/09/11 06:07:49;;;;;;;;;;;14.30;99.90;;;;;;5048205;28;20170;-71
2022/09/11 06:10:16;;;;;;;;;;;14.40;99.90;;;;;;5063771;28;20203;-71
2022/09/11 06:12:43;;;;;;;;;;;14.30;99.90;;;;;;5063329;28;19925;-71
2022/09/11 06:15:10;;;;;;;;;;;14.40;99.90;;;;;;5063988;28;19921;-71
2022/09/11 06:17:37;;;;;;;;;;;14.30;99.90;;;;;;5051555;28;19921;-71
2022/09/11 06:20:11;;;;;;;;;;;14.40;99.90;;;;;;5041092;28;19960;-71
2022/09/11 06:22:38;;;;;;;;;;;14.40;99.90;;;;;;5043352;28;19921;-71
2022/09/11 06:25:05;;;;;;;;;;;14.40;99.90;;;;;;5043247;28;19921;-70
2022/09/11 06:27:31;;;;;;;;;;;14.40;99.90;;;;;;5043674;28;20352;-70
2022/09/11 06:29:58;;;;;;;;;;;14.40;99.90;;;;;;5043877;28;19996;-71
2022/09/11 06:32:24;;;;;;;;;;;14.40;99.90;;;;;;5043653;28;19984;-72
2022/09/11 06:34:51;;;;;;;;;;;14.40;99.90;;;;;;5051641;28;19928;-71
2022/09/11 06:37:19;;;;;;;;;;;14.40;99.90;;;;;;5043691;28;19952;-72
2022/09/11 06:39:45;;;;;;;;;;;14.40;99.90;;;;;;5047133;28;19921;-70
2022/09/11 06:42:12;;;;;;;;;;;14.40;99.90;;;;;;5047853;28;19952;-71
2022/09/11 06:44:40;;;;;;;;;;;14.50;99.90;;;;;;5047041;28;19987;-71
2022/09/11 06:47:07;;;;;;;;;;;14.50;99.90;;;;;;5059908;28;19921;-71
2022/09/11 06:49:34;;;;;;;;;;;14.50;99.90;;;;;;5067317;28;19921;-71
2022/09/11 06:52:00;;;;;;;;;;;14.60;99.90;;;;;;5067553;28;19948;-70
2022/09/11 06:54:28;;;;;;;;;;;14.60;99.90;;;;;;5066546;28;19988;-71
2022/09/11 06:56:55;;;;;;;;;;;14.60;99.90;;;;;;5067205;28;19920;-71
2022/09/11 06:59:24;;;;;;;;;;;14.70;99.90;;;;;;5061165;28;20543;-72
2022/09/11 07:01:51;;;;;;;;;;;14.60;99.90;;;;;;5047374;28;19964;-71
2022/09/11 07:04:18;;;;;;;;;;;14.70;99.90;;;;;;5046700;28;19922;-71
2022/09/11 07:06:44;;;;;;;;;;;14.70;99.90;;;;;;5047297;28;19928;-71
2022/09/11 07:09:13;;;;;;;;;;;14.70;99.90;;;;;;5046028;28;19959;-71
2022/09/11 07:11:43;;;;;;;;;;;14.70;99.90;;;;;;5055806;28;20108;-71
2022/09/11 07:14:10;;;;;;;;;;;14.70;99.90;;;;;;5064056;28;19920;-71
2022/09/11 07:16:37;;;;;;;;;;;14.70;99.90;;;;;;5066845;28;19992;-70
2022/09/11 07:19:04;;;;;;;;;;;14.70;99.90;;;;;;5066885;28;20153;-70
2022/09/11 07:21:33;;;;;;;;;;;14.70;99.90;;;;;;5058119;28;19921;-70
2022/09/11 07:24:03;;;;;;;;;;;14.80;99.90;;;;;;5043562;28;19959;-69
2022/09/11 07:26:30;;;;;;;;;;;14.70;99.90;;;;;;5046605;28;19986;-69
2022/09/11 07:28:59;;;;;;;;;;;14.80;99.90;;;;;;5046817;28;20001;-69
2022/09/11 07:31:28;;;;;;;;;;;14.80;99.90;;;;;;5044106;28;19921;-69
2022/09/11 07:33:55;;;;;;;;;;;14.90;99.90;;;;;;5045850;28;19932;-69
2022/09/11 07:36:23;;;;;;;;;;;14.90;99.90;;;;;;5045562;28;19983;-69
2022/09/11 07:38:51;;;;;;;;;;;15.00;99.90;;;;;;5046396;28;19963;-70
2022/09/11 07:41:18;;;;;;;;;;;14.90;99.90;;;;;;5046352;28;19967;-70
2022/09/11 07:43:45;;;;;;;;;;;14.90;99.90;;;;;;5045954;28;19924;-70
2022/09/11 07:46:13;;;;;;;;;;;15.00;99.90;;;;;;5046407;28;19921;-69
2022/09/11 07:48:41;;;;;;;;;;;14.90;99.90;;;;;;5046413;28;19992;-69
2022/09/11 07:51:09;;;;;;;;;;;15.00;99.90;;;;;;5044977;28;19987;-69
2022/09/11 07:53:36;;;;;;;;;;;15.00;99.90;;;;;;5045632;28;19983;-69
2022/09/11 07:56:03;;;;;;;;;;;15.10;99.90;;;;;;5045790;28;20016;-69
2022/09/11 07:58:32;;;;;;;;;;;15.10;99.90;;;;;;5046185;28;19944;-69
2022/09/11 08:00:59;;;;;;;;;;;15.10;99.90;;;;;;5045961;28;19928;-70
2022/09/11 08:03:27;;;;;;;;;;;15.10;99.90;;;;;;5045561;28;20015;-70
2022/09/11 08:05:56;;;;;;;;;;;15.10;99.90;;;;;;5046199;28;19988;-70
2022/09/11 08:08:24;;;;;;;;;;;15.10;99.90;;;;;;5046100;28;19988;-70
2022/09/11 08:10:50;;;;;;;;;;;15.10;99.90;;;;;;5045853;28;19921;-70
2022/09/11 08:13:18;;;;;;;;;;;15.10;99.90;;;;;;5045409;28;20119;-69
2022/09/11 08:15:46;;;;;;;;;;;15.10;99.90;;;;;;5045610;28;20175;-70
2022/09/11 08:18:12;;;;;;;;;;;15.20;99.90;;;;;;5045634;28;19980;-70
2022/09/11 08:20:40;;;;;;;;;;;15.20;99.90;;;;;;5045495;28;19991;-70
2022/09/11 08:23:07;;;;;;;;;;;15.10;99.90;;;;;;5045090;28;19921;-70
2022/09/11 08:25:35;;;;;;;;;;;15.20;99.90;;;;;;5042219;28;19929;-69
2022/09/11 08:28:02;;;;;;;;;;;15.20;99.90;;;;;;5045740;28;20171;-70
2022/09/11 08:30:31;;;;;;;;;;;15.30;99.90;;;;;;5043130;28;19927;-70
2022/09/11 08:32:58;;;;;;;;;;;15.30;99.90;;;;;;5050978;28;19939;-70
2022/09/11 08:35:24;;;;;;;;;;;15.40;99.90;;;;;;5045080;28;20105;-69
2022/09/11 08:37:53;;;;;;;;;;;15.40;99.90;;;;;;5044528;28;19927;-69
2022/09/11 08:40:20;;;;;;;;;;;15.50;99.90;;;;;;5044924;28;19921;-70
2022/09/11 08:42:47;;;;;;;;;;;15.50;99.90;;;;;;5044311;28;19988;-70
2022/09/11 08:45:15;;;;;;;;;;;15.50;99.90;;;;;;5044104;28;19990;-69
2022/09/11 08:47:45;;;;;;;;;;;15.70;99.90;;;;;;5043999;28;19952;-69
2022/09/11 08:50:16;;;;;;;;;;;15.70;99.90;;;;;;5045259;28;19992;-69
2022/09/11 08:52:43;;;;;;;;;;;15.80;99.90;;;;;;5042808;28;19967;-69
2022/09/11 08:55:13;;;;;;;;;;;15.80;99.90;;;;;;5044395;28;19959;-69
2022/09/11 08:57:43;;;;;;;;;;;15.90;99.90;;;;;;5045071;28;19964;-69
2022/09/11 09:00:15;;;;;;;;;;;15.90;99.90;;;;;;5044557;28;19927;-69
2022/09/11 09:02:49;;;;;;;;;;;15.90;99.90;;;;;;5043883;28;19936;-70
2022/09/11 09:05:21;;;;;;;;;;;16.00;99.90;;;;;;5044830;28;19985;-70
2022/09/11 09:07:54;;;;;;;;;;;16.00;99.90;;;;;;5044478;28;19980;-69
2022/09/11 09:10:30;;;;;;;;;;;16.00;99.90;;;;;;5036982;28;20020;-69
2022/09/11 09:13:02;;;;;;;;;;;16.10;99.90;;;;;;5023233;28;19930;-70
2022/09/11 09:15:37;;;;;;;;;;;16.10;99.90;;;;;;5024304;28;19921;-71
2022/09/11 09:18:07;;;;;;;;;;;16.10;99.90;;;;;;5024953;28;19921;-71
2022/09/11 09:20:36;;;;;;;;;;;16.20;99.90;;;;;;5024935;28;19992;-71
2022/09/11 09:23:05;;;;;;;;;;;16.20;99.90;;;;;;5037973;28;19929;-71
2022/09/11 09:25:37;;;;;;;;;;;16.20;99.90;;;;;;5049238;28;19949;-70
2022/09/11 09:28:07;;;;;;;;;;;16.20;99.90;;;;;;5043592;28;19929;-70
2022/09/11 09:30:37;;;;;;;;;;;16.30;99.90;;;;;;5043741;28;20276;-70
2022/09/11 09:33:11;;;;;;;;;;;16.30;99.90;;;;;;5045377;28;20312;-71
2022/09/11 09:35:39;;;;;;;;;;;16.30;99.90;;;;;;5042768;28;19927;-71
2022/09/11 09:38:10;;;;;;;;;;;16.40;99.90;;;;;;5044794;28;19963;-71
2022/09/11 09:40:38;;;;;;;;;;;16.40;99.90;;;;;;5043888;28;20255;-70
2022/09/11 09:43:12;;;;;;;;;;;16.40;99.90;;;;;;5047725;28;19935;-70
2022/09/11 09:45:42;;;;;;;;;;;16.40;99.90;;;;;;5047595;28;19949;-71
2022/09/11 09:48:10;;;;;;;;;;;16.50;99.90;;;;;;5047979;28;19929;-70
2022/09/11 09:50:38;;;;;;;;;;;16.40;99.90;;;;;;5044021;28;19928;-71
2022/09/11 09:53:11;;;;;;;;;;;16.50;99.90;;;;;;5043487;28;19921;-71
2022/09/11 09:55:40;;;;;;;;;;;16.40;99.90;;;;;;5043830;28;19993;-70
2022/09/11 09:58:07;;;;;;;;;;;16.40;99.90;;;;;;5043897;28;19959;-71
2022/09/11 10:00:35;;;;;;;;;;;16.40;99.90;;;;;;5043820;28;20208;-71
2022/09/11 10:03:16;;;;;;;;;;;16.50;99.90;;;;;;5043634;28;19927;-70
2022/09/11 10:05:44;;;;;;;;;;;16.50;99.90;;;;;;5043733;28;20279;-73
2022/09/11 10:08:25;;;;;;;;;;;16.60;99.90;;;;;;5048084;28;20008;-70
2022/09/11 10:10:57;;;;;;;;;;;16.70;99.90;;;;;;5042948;28;19996;-70
2022/09/11 10:13:24;;;;;;;;;;;16.80;99.90;;;;;;5042332;28;19959;-70
2022/09/11 10:15:52;;;;;;;;;;;16.80;99.90;;;;;;5043156;28;20284;-69
2022/09/11 10:18:22;;;;;;;;;;;16.90;99.90;;;;;;5043163;28;20204;-70
2022/09/11 10:20:50;;;;;;;;;;;16.90;99.90;;;;;;5058304;23;19921;-70
2022/09/11 10:23:24;;;;;;;;;;;16.90;99.90;;;;;;5050891;28;19952;-70
2022/09/11 10:25:51;;;;;;;;;;;16.90;99.90;;;;;;5051705;28;19925;-70
2022/09/11 10:28:22;;;;;;;;;;;16.80;99.90;;;;;;5051142;28;19921;-70
2022/09/11 10:30:56;;;;;;;;;;;16.90;99.90;;;;;;5053300;28;19984;-70
2022/09/11 10:33:25;;;;;;;;;;;16.80;99.90;;;;;;5052823;28;19935;-70
2022/09/11 10:35:53;;;;;;;;;;;16.90;99.90;;;;;;5050655;28;19925;-70
2022/09/11 10:38:21;;;;;;;;;;;16.90;99.90;;;;;;5050325;28;19921;-70
2022/09/11 10:40:56;;;;;;;;;;;17.00;99.90;;;;;;5050709;28;19920;-70
2022/09/11 10:43:25;;;;;;;;;;;17.00;99.90;;;;;;5047956;28;20208;-70
2022/09/11 10:46:01;;;;;;;;;;;17.00;99.90;;;;;;5043108;28;19925;-71
2022/09/11 10:48:28;;;;;;;;;;;16.90;99.90;;;;;;5058479;28;19952;-72
2022/09/11 10:51:03;;;;;;;;;;;16.90;99.90;;;;;;5047484;28;20184;-70
2022/09/11 10:53:33;;;;;;;;;;;16.90;99.90;;;;;;5049867;28;19924;-70
2022/09/11 10:56:04;;;;;;;;;;;16.90;99.90;;;;;;5049964;28;20251;-70
2022/09/11 10:58:34;;;;;;;;;;;16.90;99.90;;;;;;5053276;28;20084;-70
2022/09/11 11:01:00;;;;;;;;;;;16.90;99.90;;;;;;5050751;28;19967;-70
2022/09/11 11:03:27;;;;;;;;;;;16.90;99.90;;;;;;5050329;28;19944;-71
2022/09/11 11:06:00;;;;;;;;;;;17.00;99.90;;;;;;5061461;28;19992;-70
2022/09/11 11:08:36;;;;;;;;;;;17.00;99.90;;;;;;5060373;28;19927;-70
2022/09/11 11:11:13;;;;;;;;;;;17.10;99.90;;;;;;5049901;28;19929;-70
2022/09/11 11:13:46;;;;;;;;;;;17.20;99.90;;;;;;5048202;28;19921;-72
2022/09/11 11:16:17;;;;;;;;;;;17.30;99.90;;;;;;5046531;28;19929;-72
2022/09/11 11:18:52;;;;;;;;;;;17.40;99.90;;;;;;5042097;28;19927;-72
2022/09/11 11:21:26;;;;;;;;;;;17.50;99.90;;;;;;5041701;28;19921;-72
2022/09/11 11:24:04;;;;;;;;;;;17.50;99.90;;;;;;5044813;28;19921;-72
2022/09/11 11:26:44;;;;;;;;;;;17.60;99.90;;;;;;5054179;28;19956;-70
2022/09/11 11:29:18;;;;;;;;;;;17.70;99.90;;;;;;5053000;28;19929;-71
2022/09/11 11:31:51;;;;;;;;;;;17.90;99.90;;;;;;5054389;28;19952;-71
2022/09/11 11:34:24;;;;;;;;;;;18.00;99.90;;;;;;5055893;28;19927;-71
2022/09/11 11:36:54;;;;;;;;;;;18.00;99.90;;;;;;5058408;28;19929;-71
2022/09/11 11:39:24;;;;;;;;;;;18.10;99.90;;;;;;5047413;28;19989;-73
2022/09/11 11:41:58;;;;;;;;;;;18.20;99.90;;;;;;5046737;28;19988;-72
2022/09/11 11:44:31;;;;;;;;;;;18.50;99.90;;;;;;5053091;28;19925;-74
2022/09/11 11:47:00;;;;;;;;;;;18.80;99.90;;;;;;5055047;28;20227;-72
2022/09/11 11:49:28;;;;;;;;;;;19.00;99.90;;;;;;5053075;28;20109;-72
2022/09/11 11:52:00;;;;;;;;;;;19.20;99.90;;;;;;5051073;28;19921;-73
2022/09/11 11:54:29;;;;;;;;;;;19.40;99.90;;;;;;5053156;28;19980;-73
2022/09/11 11:56:59;;;;;;;;;;;19.60;99.90;;;;;;5054709;28;19988;-73
2022/09/11 11:59:32;;;;;;;;;;;19.80;99.90;;;;;;5051342;28;19937;-72
2022/09/11 12:02:01;;;;;;;;;;;19.90;99.90;;;;;;5044766;28;19935;-72
2022/09/11 12:04:34;;;;;;;;;;;19.80;99.90;;;;;;5044549;28;19927;-71
2022/09/11 12:07:01;;;;;;;;;;;19.80;99.90;;;;;;5045293;28;19992;-72
2022/09/11 12:09:30;;;;;;;;;;;19.60;99.90;;;;;;5040854;28;20260;-72
2022/09/11 12:12:03;;;;;;;;;;;19.50;99.90;;;;;;5053581;28;20111;-72
2022/09/11 12:14:32;;;;;;;;;;;19.40;99.90;;;;;;5046701;28;20081;-72
2022/09/11 12:17:16;;;;;;;;;;;19.30;99.90;;;;;;5045400;28;19925;-72
2022/09/11 12:19:57;;;;;;;;;;;19.20;99.90;;;;;;5051876;28;19940;-72
2022/09/11 12:22:32;;;;;;;;;;;19.10;99.90;;;;;;5046347;28;20230;-72
2022/09/11 12:24:59;;;;;;;;;;;18.90;99.90;;;;;;5056048;28;19991;-72
2022/09/11 12:27:49;;;;;;;;;;;18.90;99.90;;;;;;5055774;28;19959;-72
2022/09/11 12:30:21;;;;;;;;;;;18.80;99.90;;;;;;5055290;28;20220;-72
2022/09/11 12:32:48;;;;;;;;;;;18.90;99.90;;;;;;5051961;28;19920;-72
2022/09/11 12:35:40;;;;;;;;;;;19.00;99.90;;;;;;5051816;28;19920;-72
2022/09/11 12:38:13;;;;;;;;;;;19.10;99.90;;;;;;5054904;28;20180;-72
2022/09/11 12:40:47;;;;;;;;;;;19.20;99.90;;;;;;5053335;28;20107;-72
2022/09/11 12:43:30;;;;;;;;;;;19.40;99.90;;;;;;5052281;28;19924;-72
2022/09/11 12:45:58;;;;;;;;;;;19.50;99.90;;;;;;5053186;28;19927;-72
2022/09/11 12:48:32;;;;;;;;;;;19.50;99.90;;;;;;5057644;28;19921;-72
2022/09/11 12:50:59;;;;;;;;;;;19.70;99.90;;;;;;5053269;28;19925;-72
2022/09/11 12:53:27;;;;;;;;;;;20.10;99.90;;;;;;5050175;28;20216;-72
2022/09/11 12:55:56;;;;;;;;;;;20.40;99.90;;;;;;5058022;28;19921;-73
2022/09/11 12:58:27;;;;;;;;;;;20.70;99.90;;;;;;5047094;28;19927;-71
2022/09/11 13:01:02;;;;;;;;;;;21.10;99.90;;;;;;5054284;28;19959;-72
2022/09/11 13:03:29;;;;;;;;;;;21.20;99.90;;;;;;5051152;28;19988;-73
2022/09/11 13:05:58;;;;;;;;;;;21.20;99.90;;;;;;5050310;28;19921;-69
2022/09/11 13:08:26;;;;;;;;;;;21.00;99.90;;;;;;5048599;28;19995;-72
2022/09/11 13:10:53;;;;;;;;;;;20.70;99.90;;;;;;5060492;28;19987;-70
2022/09/11 13:13:39;;;;;;;;;;;20.50;99.90;;;;;;5058195;28;19920;-70
2022/09/11 13:16:18;;;;;;;;;;;20.20;99.90;;;;;;5064285;28;19921;-70
2022/09/11 13:18:44;;;;;;;;;;;20.10;99.90;;;;;;5063560;28;19925;-72
2022/09/11 13:21:17;;;;;;;;;;;20.00;99.90;;;;;;5052435;28;19988;-72
2022/09/11 13:23:44;;;;;;;;;;;20.00;99.90;;;;;;5050085;28;19928;-72
2022/09/11 13:26:14;;;;;;;;;;;20.00;99.90;;;;;;5048263;28;20205;-72
2022/09/11 13:28:43;;;;;;;;;;;20.00;99.90;;;;;;5051933;28;20090;-72
2022/09/11 13:31:15;;;;;;;;;;;20.10;99.90;;;;;;5052129;28;20283;-72
2022/09/11 13:33:48;;;;;;;;;;;20.20;99.90;;;;;;5048323;28;19929;-72
2022/09/11 13:36:15;;;;;;;;;;;20.40;99.90;;;;;;5051570;28;19928;-72
2022/09/11 13:38:45;;;;;;;;;;;20.60;99.90;;;;;;5049650;28;20007;-72
2022/09/11 13:41:14;;;;;;;;;;;20.90;99.90;;;;;;5052113;28;19988;-72
2022/09/11 13:43:43;;;;;;;;;;;21.10;99.90;;;;;;5048833;28;19955;-72
2022/09/11 13:46:10;;;;;;;;;;;21.10;99.90;;;;;;5054426;28;19929;-72
2022/09/11 13:48:37;;;;;;;;;;;21.00;99.90;;;;;;5050973;28;19921;-72
2022/09/11 13:51:06;;;;;;;;;;;20.90;99.90;;;;;;5047033;28;19965;-72
2022/09/11 13:53:33;;;;;;;;;;;20.80;99.90;;;;;;5047360;28;19921;-72
2022/09/11 13:55:59;;;;;;;;;;;20.60;99.90;;;;;;5041061;28;20120;-72
2022/09/11 13:58:31;;;;;;;;;;;20.60;99.90;;;;;;5041663;28;19984;-71
2022/09/11 14:01:09;;;;;;;;;;;20.50;99.90;;;;;;5040790;28;20665;-71
2022/09/11 14:03:36;;;;;;;;;;;20.40;99.90;;;;;;5036671;28;19975;-72
2022/09/11 14:06:04;;;;;;;;;;;20.20;99.90;;;;;;5043258;28;19953;-71
2022/09/11 14:08:33;;;;;;;;;;;20.20;99.90;;;;;;5038077;28;19922;-71
2022/09/11 14:11:02;;;;;;;;;;;20.00;99.90;;;;;;5040445;28;19944;-72
2022/09/11 14:13:31;;;;;;;;;;;19.90;99.90;;;;;;5038847;28;20207;-70
2022/09/11 14:16:00;;;;;;;;;;;19.70;99.90;;;;;;5039495;28;19920;-70
2022/09/11 14:18:29;;;;;;;;;;;19.60;99.90;;;;;;5043473;28;19984;-70
2022/09/11 14:20:58;;;;;;;;;;;19.60;99.90;;;;;;5043378;28;19979;-71
2022/09/11 14:23:26;;;;;;;;;;;19.50;99.90;;;;;;5042521;28;19993;-70
2022/09/11 14:26:07;;;;;;;;;;;19.40;99.90;;;;;;5039469;28;19921;-70
2022/09/11 14:28:41;;;;;;;;;;;19.40;99.90;;;;;;5023699;28;20124;-70